Latest Coastal Weather Observations for Hamilton Island

IDQ60701

Issued at 1:32 pm EST Monday 26 September 2016 (issued every 10 minutes, with the page automatically refreshed every 10 minutes)

About coastal observations | Map of coastal stations | Coastal observations for QLD | Marine services | Other Formats
Station Details ID: 033106 Name: HAMILTON ISLAND AIRPORT Lat: -20.37 Lon: 148.95 Height: 58.66 m
Data from the previous 72 hours. | See also: Recent months at Hamilton Island
Date/Time
EST
Temp
°C
Wind Pressure Rain since
9am
mm
Weather Cloud Vis
km
Sea
Height
m
Swell
Dir  Spd
kts
Gust
kts
hPa Trend Height
m
Period
s
Dir
26/01:30pm 25.4 E 15 18 1011.8 - 0.0 - - 10 - - - -
26/01:00pm 26.3 E 12 14 1012.2 - 0.0 - - 10 - - - -
26/12:30pm 27.2 SE 12 14 1012.6 - 0.0 - - 10 - - - -
26/12:00pm 26.4 SSE 11 12 1012.7 - 0.0 - - 10 - - - -
26/11:30am 26.4 SSE 12 14 1013.3 - 0.0 - - 10 - - - -
26/11:00am 27.5 SE 12 14 1013.7 - 0.0 - - 10 - - - -
26/10:30am 26.4 SSE 11 12 1014.0 - 0.0 - - 10 - - - -
26/10:00am 26.3 SSE 13 14 1014.1 - 0.0 - - 10 - - - -
26/09:30am 25.9 SSE 11 13 1014.3 - 0.0 - - 10 - - - -
26/09:00am 26.7 S 5 7 1013.8 - 0.0 - - 10 - - - -
26/08:30am 26.0 SW 5 7 1014.1 - 0.0 - - 10 - - - -
26/08:00am 25.3 WNW 5 6 1014.0 - 0.0 - Partly cloudy 10 - - - -
26/07:30am 24.5 NW 7 9 1013.6 - 0.0 - - 10 - - - -
26/07:00am 24.2 NW 9 11 1013.1 - 0.0 - - 10 - - - -
26/06:30am 23.9 NW 11 13 1012.7 - 0.0 - Partly cloudy 10 - - - -
26/06:00am 23.9 NNW 13 16 1012.0 - 0.0 - Mostly clear 10 - - - -
26/05:30am 23.8 NNW 13 16 1011.9 - 0.0 - Partly cloudy 10 - - - -
26/05:00am 23.9 NNW 14 16 1011.5 - 0.0 - Partly cloudy 10 - - - -
26/04:30am 23.9 NNW 12 14 1011.2 - 0.0 - - 10 - - - -
26/04:00am 23.9 NNW 13 16 1011.2 - 0.0 - Partly cloudy 10 - - - -
26/03:30am 24.0 NNW 14 17 1010.9 - 0.0 - - 10 - - - -
26/03:00am 24.1 NNW 15 18 1010.5 - 0.0 - - 10 - - - -
26/02:30am 24.1 NNW 16 19 1010.8 - 0.0 - - 10 - - - -
26/02:00am 24.1 NW 17 21 1010.7 - 0.0 - - 10 - - - -
26/01:30am 24.1 NW 16 20 1011.1 - 0.0 - - 10 - - - -
26/01:00am 24.2 NW 17 21 1011.6 - 0.0 - - 10 - - - -
26/12:30am 24.2 NW 20 24 1011.5 - 0.0 - - 10 - - - -
26/12:00am 24.3 NNW 19 22 1011.5 - 0.0 - - 10 - - - -
 
Date/Time
EST
Temp
°C
Wind Pressure Rain since
9am
mm
Weather Cloud Vis
km
Sea
Height
m
Swell
Dir  Spd
kts
Gust
kts
hPa Trend Height
m
Period
s
Dir
25/11:30pm 24.3 NNW 20 25 1011.9 - 0.0 - - 10 - - - -
25/11:00pm 24.3 NW 21 26 1011.8 - 0.0 - - 10 - - - -
25/10:30pm 24.3 NW 19 25 1012.1 - 0.0 - - 10 - - - -
25/10:00pm 24.4 NW 21 25 1011.8 - 0.0 - - 10 - - - -
25/09:30pm 24.4 NW 21 24 1011.7 - 0.0 - - 10 - - - -
25/09:00pm 24.5 NW 22 27 1011.0 - 0.0 - - 10 - - - -
25/08:30pm 24.5 NW 23 27 1011.0 - 0.0 - - 10 - - - -
25/08:00pm 24.5 NNW 23 26 1010.7 - 0.0 - - 10 - - - -
25/07:30pm 24.5 NNW 21 27 1010.4 - 0.0 - - 10 - - - -
25/07:00pm 24.6 NNW 24 28 1010.1 - 0.0 - - 10 - - - -
25/06:30pm 24.6 NNW 25 30 1009.5 - 0.0 - - 10 - - - -
25/06:00pm 24.7 NNW 24 28 1009.0 - 0.0 - - 10 - - - -
25/05:30pm 25.1 NNW 24 28 1008.8 - 0.0 - - 10 - - - -
25/05:00pm 25.6 NNW 23 29 1008.6 - 0.0 - - 10 - - - -
25/04:30pm 26.0 NNW 23 29 1008.3 - 0.0 - - 10 - - - -
25/04:00pm 26.2 NNW 24 29 1008.2 - 0.0 - - 10 - - - -
25/03:30pm 26.6 NNW 22 27 1008.5 - 0.0 - - 10 - - - -
25/03:00pm 26.9 NNW 22 27 1008.1 - 0.0 - - 10 - - - -
25/02:30pm 27.3 NNW 21 27 1008.9 - 0.0 - - 10 - - - -
25/02:00pm 27.2 NNW 21 27 1009.1 - 0.0 - - 10 - - - -
25/01:30pm 26.9 NNW 21 27 1009.4 - 0.0 - - 10 - - - -
25/01:00pm 27.2 NNW 21 26 1009.7 - 0.0 - - 10 - - - -
25/12:30pm 27.3 NNW 21 27 1010.0 - 0.0 - - 10 - - - -
25/12:00pm 27.5 NNW 17 21 1010.5 - 0.0 - - 10 - - - -
25/11:30am 27.1 NNW 20 24 1011.0 - 0.0 - - 10 - - - -
25/11:00am 27.0 NNW 17 23 1011.6 - 0.0 - - 10 - - - -
25/10:30am 26.2 NNW 17 22 1011.9 - 0.0 - - 10 - - - -
25/10:00am 26.3 NNW 18 22 1012.0 - 0.0 - - 10 - - - -
25/09:30am 25.9 NNW 18 22 1012.1 - 0.0 - - 10 - - - -
25/09:00am 25.6 NNW 15 19 1012.0 - 0.0 - - 10 - - - -
25/08:30am 25.2 NNW 16 19 1012.4 - 0.0 - - 10 - - - -
25/08:00am 25.1 NW 12 16 1012.4 - 0.0 - Partly cloudy 10 - - - -
25/07:30am 24.7 NNW 13 16 1012.1 - 0.0 - - 10 - - - -
25/07:00am 24.4 NNW 12 17 1011.6 - 0.0 - - 10 - - - -
25/06:00am 23.9 NW 9 13 1010.8 - 0.0 - Mostly cloudy 10 - - - -
25/05:30am 23.9 NW 11 14 1010.8 - 0.0 - - 10 - - - -
25/05:00am 23.9 NW 11 14 1010.5 - 0.0 - Partly cloudy 10 - - - -
25/04:30am 23.9 NW 12 16 1010.1 - 0.0 - - 10 - - - -
25/04:00am 23.9 NW 12 16 1009.8 - 0.0 - - 10 - - - -
25/03:30am 24.0 NW 13 17 1009.7 - 0.0 - - 10 - - - -
25/03:00am 24.1 NW 14 20 1009.5 - 0.0 - Mostly clear 10 - - - -
25/02:55am 24.0 NW 14 20 1009.8 - 0.0 - Partly cloudy 10 - - - -
25/02:30am 24.0 NW 13 17 1009.9 - 0.0 - Partly cloudy 10 - - - -
25/02:23am 24.1 NW 14 18 1009.9 - 0.0 - Partly cloudy 10 - - - -
25/02:13am 24.1 NW 15 21 1009.9 - 0.0 - Partly cloudy 10 - - - -
25/02:00am 24.1 NW 15 22 1010.0 - 0.0 - Partly cloudy 10 - - - -
25/01:30am 24.3 NNW 16 19 1010.2 - 0.0 - Partly cloudy 10 - - - -
25/01:00am 24.3 NNW 16 20 1010.4 - 0.0 - Partly cloudy 10 - - - -
25/12:52am 24.3 NNW 15 19 1010.6 - 0.0 - Partly cloudy 10 - - - -
25/12:38am 24.3 NNW 15 20 1010.7 - 0.0 - Partly cloudy 10 - - - -
25/12:30am 24.3 NNW 15 20 1010.7 - 0.0 - Partly cloudy 10 - - - -
25/12:00am 24.2 NNW 15 20 1010.2 - 0.0 - Mostly clear 10 - - - -
 
Date/Time
EST
Temp
°C
Wind Pressure Rain since
9am
mm
Weather Cloud Vis
km
Sea
Height
m
Swell
Dir  Spd
kts
Gust
kts
hPa Trend Height
m
Period
s
Dir
24/11:30pm 24.2 NNW 13 17 1010.8 - 0.0 - Partly cloudy 10 - - - -
24/11:16pm 24.3 NNW 15 21 1010.8 - 0.0 - Partly cloudy 10 - - - -
24/11:00pm 24.4 NNW 15 19 1010.8 - 0.0 - Partly cloudy 10 - - - -
24/10:38pm 24.4 NNW 14 19 1011.0 - 0.0 - Partly cloudy 10 - - - -
24/10:31pm 24.4 NNW 13 19 1011.1 - 0.0 - Partly cloudy 10 - - - -
24/10:30pm 24.4 NNW 12 19 1011.0 - 0.0 - Partly cloudy 10 - - - -
24/10:21pm 24.3 NNW 13 17 1011.1 - 0.0 - Partly cloudy 10 - - - -
24/10:18pm 24.3 NNW 13 17 1011.0 - 0.0 - Partly cloudy 10 - - - -
24/10:00pm 24.4 N 12 17 1011.2 - 0.0 - Partly cloudy 10 - - - -
24/09:30pm 24.3 N 11 14 1011.3 - 0.0 - Partly cloudy 10 - - - -
24/09:18pm 24.2 N 11 14 1011.2 - 0.0 - Partly cloudy 10 - - - -
24/09:00pm 24.2 N 10 16 1010.9 - 0.0 - Partly cloudy 10 - - - -
24/08:56pm 24.3 N 10 16 1011.1 - 0.0 - Partly cloudy 10 - - - -
24/08:37pm 24.2 N 11 16 1011.0 - 0.0 - Partly cloudy 10 - - - -
24/08:30pm 24.3 N 11 16 1011.0 - 0.0 - Partly cloudy 10 - - - -
24/08:00pm 24.2 N 12 16 1010.6 - 0.0 - - 10 - - - -
24/07:30pm 24.3 N 9 14 1010.4 - 0.0 - - 10 - - - -
24/07:00pm 24.4 N 13 19 1010.0 - 0.0 - - 10 - - - -
24/06:30pm 24.6 N 12 17 1009.8 - 0.0 - - 10 - - - -
24/06:00pm 24.7 NNW 14 17 1009.0 - 0.0 - - 10 - - - -
24/05:30pm 25.4 NNW 18 22 1009.1 - 0.0 - - 10 - - - -
24/05:00pm 25.8 NNW 19 24 1008.9 - 0.0 - - 10 - - - -
24/04:30pm 26.0 NNW 19 24 1008.7 - 0.0 - - 10 - - - -
24/04:00pm 26.3 NNW 20 24 1008.7 - 0.0 - - 10 - - - -
24/03:30pm 26.6 NNW 19 25 1008.9 - 0.0 - - 10 - - - -
24/03:00pm 27.1 NNW 16 20 1009.2 - 0.0 - - 10 - - - -
24/02:30pm 27.3 NNW 15 20 1009.8 - 0.0 - Partly cloudy 10 - - - -
24/02:00pm 27.0 NNW 17 20 1010.3 - 0.0 - - 10 - - - -
24/01:30pm 27.1 NNW 17 20 1010.6 - 0.0 - - 10 - - - -
24/01:00pm 26.7 NNW 19 22 1010.9 - 0.0 - - 10 - - - -
24/12:30pm 26.9 NNW 16 21 1011.5 - 0.0 - - 10 - - - -
24/12:00pm 26.6 NNW 16 19 1011.7 - 0.0 - - 10 - - - -
24/11:30am 26.7 NW 13 18 1012.5 - 0.0 - - 10 - - - -
24/11:00am 26.3 NNW 13 17 1012.8 - 0.0 - - 10 - - - -
24/10:30am 25.8 NW 16 19 1013.1 - 0.0 - - 10 - - - -
24/10:00am 26.0 NW 14 18 1013.1 - 0.0 - - 10 - - - -
24/09:30am 25.5 NW 14 17 1013.2 - 0.0 - - 10 - - - -
24/09:00am 25.3 NNW 11 14 1013.0 - 0.2 - - 10 - - - -
24/08:30am 25.0 NNW 10 13 1013.3 - 0.2 - Partly cloudy 10 - - - -
24/08:00am 24.2 NNW 6 8 1013.2 - 0.2 - - 10 - - - -
24/07:30am 23.7 NW 1 4 1013.1 - 0.2 - Partly cloudy 10 - - - -
24/07:00am 23.4 NE 1 4 1012.8 - 0.2 - Partly cloudy 10 - - - -
24/06:30am 22.6 CALM 0 0 1012.6 - 0.2 - Partly cloudy 10 - - - -
24/06:00am 22.4 NNW 3 4 1012.1 - 0.2 - Mostly clear 10 - - - -
24/05:30am 22.2 W 2 3 1012.0 - 0.2 - Partly cloudy 10 - - - -
24/05:00am 22.3 W 5 6 1011.7 - 0.0 - Partly cloudy 8 - - - -
24/04:30am 22.2 CALM 0 0 1011.3 - 0.0 - Partly cloudy 10 - - - -
24/04:00am 22.0 CALM 0 1 1011.3 - 0.0 - Partly cloudy 10 - - - -
24/03:30am 22.2 CALM 0 0 1011.3 - 0.0 - - 10 - - - -
24/03:00am 22.2 CALM 0 0 1010.9 - 0.0 - Mostly clear 10 - - - -
24/02:30am 22.4 N 3 4 1011.3 - 0.0 - - 10 - - - -
24/02:00am 22.3 WNW 4 5 1011.5 - 0.0 - - 10 - - - -
24/01:30am 22.5 N 5 7 1011.5 - 0.0 - - 10 - - - -
24/01:00am 22.5 NE 7 8 1011.4 - 0.0 - - 10 - - - -
24/12:30am 22.6 NE 4 6 1011.7 - 0.0 - - 10 - - - -
24/12:00am 23.0 NNE 5 6 1011.8 - 0.0 - Mostly clear 10 - - - -
 
Date/Time
EST
Temp
°C
Wind Pressure Rain since
9am
mm
Weather Cloud Vis
km
Sea
Height
m
Swell
Dir  Spd
kts
Gust
kts
hPa Trend Height
m
Period
s
Dir
23/11:30pm 23.1 CALM 0 0 1012.4 - 0.0 - Partly cloudy 10 - - - -
23/11:00pm 23.0 ENE 1 3 1012.4 - 0.0 - Cloudy 10 - - - -
23/10:30pm 23.1 NE 6 8 1012.3 - 0.0 - Cloudy 10 - - - -
23/10:00pm 23.0 ENE 8 9 1012.3 - 0.0 - Cloudy 10 - - - -
23/09:30pm 22.8 ENE 6 7 1012.4 - 0.0 - Partly cloudy 10 - - - -
23/09:00pm 22.7 ENE 6 7 1012.1 - 0.0 - Partly cloudy 10 - - - -
23/08:30pm 22.8 NE 6 8 1012.4 - 0.0 - Partly cloudy 10 - - - -
23/08:00pm 22.8 NE 8 9 1012.2 - 0.0 - Partly cloudy 10 - - - -
23/07:30pm 22.8 NE 7 9 1012.2 - 0.0 - Partly cloudy 10 - - - -
23/07:00pm 22.9 NE 8 10 1011.9 - 0.0 - Partly cloudy 10 - - - -
23/06:30pm 23.0 ENE 8 11 1011.5 - 0.0 - Partly cloudy 10 - - - -
23/06:00pm 23.1 ENE 9 11 1010.9 - 0.0 - - 10 - - - -
23/05:30pm 23.4 E 10 12 1010.9 - 0.0 - - 10 - - - -
23/05:00pm 23.6 E 10 13 1010.6 - 0.0 - - 10 - - - -
23/04:30pm 23.6 E 10 13 1010.4 - 0.0 - - 10 - - - -
23/04:00pm 24.1 E 11 13 1010.1 - 0.0 - - 10 - - - -
23/03:30pm 23.5 E 13 16 1009.9 - 0.0 - - 10 - - - -
23/03:00pm 23.8 E 14 15 1009.8 - 0.0 - - 10 - - - -
23/02:30pm 24.3 E 12 15 1010.5 - 0.0 - - 10 - - - -
23/02:00pm 24.6 E 11 12 1010.9 - 0.0 - - 10 - - - -

Other Formats:

Comma delimited format used in spreadsheet applications
http://www.bom.gov.au/fwo/IDQ60701/IDQ60701.94368.axf

JavaScript Object Notation format (JSON) in row-major order
http://www.bom.gov.au/fwo/IDQ60701/IDQ60701.94368.json